Time;durP1;ratioP1;P1;durP2;ratioP2;P2;SDS_P1;SDS_P2;PMS_P1;PMS_P2;Temp;Humidity;BMP_temperature;BMP_pressure;BME280_temperature;BME280_humidity;BME280_pressure;Samples;Min_cycle;Max_cycle;Signal;HPM_P1;HPM_P2
2022/05/02 00:00:38;;;;;;;59.63;31.10;;;;;;;10.47;68.13;101418.03;1775247;80;21042;-79
2022/05/02 00:03:05;;;;;;;43.48;24.00;;;;;;;10.50;68.48;101421.84;1777070;80;21183;-79
2022/05/02 00:05:31;;;;;;;48.95;27.32;;;;;;;10.49;68.56;101423.62;1775632;80;21395;-80
2022/05/02 00:07:58;;;;;;;47.67;27.30;;;;;;;10.48;68.61;101423.68;1775421;80;21031;-80
2022/05/02 00:10:26;;;;;;;37.63;21.93;;;;;;;10.44;68.72;101420.81;1775524;80;20897;-79
2022/05/02 00:12:53;;;;;;;32.50;19.30;;;;;;;10.41;68.92;101415.25;1775759;80;20889;-80
2022/05/02 00:15:22;;;;;;;31.68;18.70;;;;;;;10.42;69.26;101412.16;1775403;80;20912;-79
2022/05/02 00:17:57;;;;;;;23.73;16.20;;;;;;;10.41;69.33;101410.00;1772074;80;20920;-78
2022/05/02 00:20:29;;;;;;;25.37;16.70;;;;;;;10.43;69.44;101407.32;1768201;81;20885;-80
2022/05/02 00:22:59;;;;;;;18.57;14.33;;;;;;;10.45;69.38;101405.02;1768144;81;21326;-79
2022/05/02 00:25:28;;;;;;;22.98;15.30;;;;;;;10.46;69.17;101405.86;1768277;81;20991;-79
2022/05/02 00:27:56;;;;;;;21.77;14.40;;;;;;;10.45;69.22;101407.63;1768272;81;21241;-80
2022/05/02 00:30:23;;;;;;;19.98;13.88;;;;;;;10.44;69.19;101412.94;1768049;81;20897;-80
2022/05/02 00:32:52;;;;;;;19.32;13.45;;;;;;;10.42;69.17;101408.23;1768086;81;20853;-79
2022/05/02 00:35:18;;;;;;;16.23;13.03;;;;;;;10.40;69.00;101411.38;1768499;81;20873;-80
2022/05/02 00:37:47;;;;;;;18.45;14.15;;;;;;;10.39;69.07;101411.84;1768269;81;20929;-80
2022/05/02 00:40:16;;;;;;;18.02;11.83;;;;;;;10.39;69.18;101412.31;1768206;81;21799;-79
2022/05/02 00:42:44;;;;;;;18.40;14.07;;;;;;;10.38;69.09;101410.13;1768605;80;20853;-79
2022/05/02 00:45:15;;;;;;;14.65;11.90;;;;;;;10.38;69.30;101408.81;1770161;81;20893;-78
2022/05/02 00:47:57;;;;;;;14.20;12.15;;;;;;;10.38;69.47;101403.58;1768084;81;20897;-80
2022/05/02 00:50:35;;;;;;;15.43;12.93;;;;;;;10.40;69.53;101404.82;1768259;81;20940;-80
2022/05/02 00:53:05;;;;;;;17.15;11.12;;;;;;;10.39;69.37;101408.38;1768235;81;21928;-80
2022/05/02 00:55:32;;;;;;;21.90;13.88;;;;;;;10.39;69.54;101405.29;1767772;81;20920;-80
2022/05/02 00:57:59;;;;;;;24.80;13.20;;;;;;;10.42;69.76;101406.45;1768366;81;21480;-80
2022/05/02 01:00:28;;;;;;;16.62;12.07;;;;;;;10.44;69.95;101407.23;1768528;81;20913;-80
2022/05/02 01:02:54;;;;;;;16.27;13.25;;;;;;;10.45;69.95;101406.76;1768399;80;20927;-80
2022/05/02 01:05:21;;;;;;;13.98;11.65;;;;;;;10.45;70.13;101409.38;1768780;81;21154;-80
2022/05/02 01:07:47;;;;;;;14.30;11.55;;;;;;;10.45;69.99;101408.07;1768409;81;20873;-79
2022/05/02 01:10:17;;;;;;;17.15;11.70;;;;;;;10.42;69.48;101406.91;1768582;80;20881;-80
2022/05/02 01:12:44;;;;;;;15.53;12.13;;;;;;;10.42;69.64;101404.30;1768602;81;20874;-79
2022/05/02 01:15:11;;;;;;;15.50;12.18;;;;;;;10.43;69.71;101402.92;1768501;81;21398;-79
2022/05/02 01:17:37;;;;;;;18.50;12.03;;;;;;;10.48;69.70;101404.02;1769966;80;21076;-81
2022/05/02 01:20:09;;;;;;;17.45;11.22;;;;;;;10.51;69.69;101409.94;1775358;80;21369;-80
2022/05/02 01:22:36;;;;;;;15.10;12.63;;;;;;;10.51;69.50;101406.02;1775346;80;20912;-79
2022/05/02 01:25:03;;;;;;;13.08;11.40;;;;;;;10.51;69.52;101410.41;1775237;80;20936;-79
2022/05/02 01:27:29;;;;;;;15.05;12.13;;;;;;;10.47;69.70;101413.66;1776640;80;20924;-77
2022/05/02 01:29:56;;;;;;;16.35;12.33;;;;;;;10.45;69.44;101405.45;1776147;80;21355;-80
2022/05/02 01:32:23;;;;;;;21.93;12.65;;;;;;;10.46;69.34;101405.86;1775458;80;20885;-80
2022/05/02 01:34:50;;;;;;;14.18;11.50;;;;;;;10.50;69.63;101404.80;1775425;80;20933;-79
2022/05/02 01:37:16;;;;;;;13.98;11.10;;;;;;;10.52;69.49;101393.77;1775871;80;20931;-80
2022/05/02 01:39:43;;;;;;;15.80;11.53;;;;;;;10.53;69.39;101396.30;1775414;80;20927;-78
2022/05/02 01:42:11;;;;;;;15.70;10.10;;;;;;;10.54;69.56;101394.08;1775286;80;21179;-79
2022/05/02 01:44:38;;;;;;;12.82;11.00;;;;;;;10.57;69.55;101393.08;1775946;80;20881;-80
2022/05/02 01:47:05;;;;;;;15.60;10.98;;;;;;;10.56;69.65;101396.61;1775393;80;20936;-80
2022/05/02 01:49:31;;;;;;;16.70;12.05;;;;;;;10.58;69.74;101397.39;1775178;80;20924;-79
2022/05/02 01:51:58;;;;;;;15.50;11.45;;;;;;;10.62;69.71;101396.80;1775865;80;20935;-81
2022/05/02 01:54:26;;;;;;;16.57;11.65;;;;;;;10.64;69.76;101398.89;1775396;80;21140;-80
2022/05/02 01:56:52;;;;;;;17.55;12.20;;;;;;;10.65;69.68;101393.58;1775244;80;21397;-80
2022/05/02 01:59:19;;;;;;;14.05;10.85;;;;;;;10.65;69.62;101403.20;1776802;78;20964;-80
2022/05/02 02:01:46;;;;;;;12.80;9.93;;;;;;;10.61;69.68;101396.42;1777873;78;20893;-79
2022/05/02 02:06:58;;;;;;;13.08;10.58;;;;;;;10.50;70.14;101396.92;1777512;80;21147;-80
2022/05/02 02:09:25;;;;;;;13.18;10.58;;;;;;;10.43;70.40;101401.61;1776484;80;20837;-77
2022/05/02 02:11:52;;;;;;;18.35;10.70;;;;;;;10.39;70.58;101407.07;1777103;80;20924;-80
2022/05/02 02:14:19;;;;;;;17.75;11.75;;;;;;;10.37;70.74;101404.51;1775419;80;20912;-80
2022/05/02 02:16:46;;;;;;;14.63;11.12;;;;;;;10.36;70.89;101408.06;1775419;80;20912;-81
2022/05/02 02:19:13;;;;;;;13.45;10.05;;;;;;;10.35;71.17;101405.04;1775506;80;21250;-80
2022/05/02 02:21:39;;;;;;;15.93;10.78;;;;;;;10.34;71.18;101408.59;1775701;80;21457;-80
2022/05/02 02:24:06;;;;;;;13.15;10.50;;;;;;;10.31;71.22;101416.58;1775461;80;20927;-80
2022/05/02 02:26:33;;;;;;;13.40;10.35;;;;;;;10.31;71.17;101417.42;1775492;80;21368;-79
2022/05/02 02:29:01;;;;;;;15.28;10.70;;;;;;;10.33;71.12;101416.05;1775499;80;20975;-80
2022/05/02 02:31:28;;;;;;;15.95;10.10;;;;;;;10.37;71.10;101419.77;1753794;80;21975;-80
2022/05/02 02:33:54;;;;;;;17.05;10.93;;;;;;;10.40;71.00;101416.63;1775696;80;20885;-80
2022/05/02 02:36:20;;;;;;;14.40;11.20;;;;;;;10.43;70.90;101412.56;1775370;80;20984;-80
2022/05/02 02:38:47;;;;;;;15.35;11.10;;;;;;;10.47;70.62;101412.78;1775383;80;21331;-79
2022/05/02 02:41:15;;;;;;;17.02;10.85;;;;;;;10.49;70.31;101411.81;1775617;80;20833;-81
2022/05/02 02:43:42;;;;;;;16.30;11.12;;;;;;;10.48;70.24;101415.34;1775482;80;21145;-79
2022/05/02 02:46:08;;;;;;;16.37;11.25;;;;;;;10.47;69.74;101414.09;1775518;80;20944;-79
2022/05/02 02:48:36;;;;;;;17.10;11.35;;;;;;;10.47;69.42;101417.59;1775443;80;20892;-80
2022/05/02 02:51:03;;;;;;;14.83;12.43;;;;;;;10.48;69.54;101423.21;1775403;80;20900;-81
2022/05/02 02:53:29;;;;;;;12.43;10.38;;;;;;;10.48;69.64;101428.92;1777308;80;21035;-80
2022/05/02 02:55:56;;;;;;;15.68;10.85;;;;;;;10.47;69.84;101421.97;1775849;80;21913;-79
2022/05/02 02:58:25;;;;;;;12.70;9.55;;;;;;;10.46;69.64;101420.28;1775320;80;21002;-79
2022/05/02 03:00:52;;;;;;;11.43;10.23;;;;;;;10.45;69.52;101421.19;1774644;80;21533;-80
2022/05/02 03:03:18;;;;;;;14.85;9.80;;;;;;;10.41;69.60;101426.20;1753823;80;21426;-81
2022/05/02 03:06:03;;;;;;;15.15;9.78;;;;;;;10.39;69.71;101423.64;1775403;80;20932;-80
2022/05/02 03:08:33;;;;;;;12.85;9.95;;;;;;;10.37;69.84;101425.48;1775502;80;21319;-79
2022/05/02 03:11:00;;;;;;;11.18;9.08;;;;;;;10.38;70.09;101431.11;1775241;80;21547;-81
2022/05/02 03:13:26;;;;;;;13.50;10.00;;;;;;;10.39;70.34;101437.22;1775382;80;20967;-82
2022/05/02 03:15:53;;;;;;;13.32;10.88;;;;;;;10.36;70.75;101430.36;1775651;80;20849;-81
2022/05/02 03:18:19;;;;;;;12.95;10.05;;;;;;;10.36;70.98;101436.44;1777516;80;20947;-80
2022/05/02 03:20:47;;;;;;;15.45;10.40;;;;;;;10.36;71.25;101433.81;1783566;80;21260;-81
2022/05/02 03:23:13;;;;;;;17.85;9.78;;;;;;;10.37;71.35;101443.84;1783943;80;20920;-80
2022/05/02 03:25:39;;;;;;;12.13;9.75;;;;;;;10.40;71.42;101445.47;1783657;80;20928;-81
2022/05/02 03:28:06;;;;;;;10.45;9.35;;;;;;;10.42;71.38;101447.55;1783865;80;21003;-80
2022/05/02 03:30:33;;;;;;;14.18;9.73;;;;;;;10.45;70.67;101444.78;1783603;80;20891;-80
2022/05/02 03:33:01;;;;;;;13.72;10.63;;;;;;;10.47;70.35;101439.88;1783683;80;21367;-80
2022/05/02 03:35:28;;;;;;;14.45;9.73;;;;;;;10.51;69.97;101436.64;1784712;80;20868;-77
2022/05/02 03:37:55;;;;;;;16.02;11.70;;;;;;;10.54;69.55;101435.20;1784300;80;20873;-80
2022/05/02 03:40:21;;;;;;;13.53;10.38;;;;;;;10.53;69.53;101434.80;1783539;80;20960;-80
2022/05/02 03:42:48;;;;;;;15.75;10.28;;;;;;;10.49;69.71;101431.48;1783672;80;20967;-81
2022/05/02 03:45:15;;;;;;;13.38;9.75;;;;;;;10.45;69.89;101430.36;1783562;80;21187;-79
2022/05/02 03:47:41;;;;;;;13.70;11.18;;;;;;;10.44;70.16;101435.23;1783514;80;20884;-79
2022/05/02 03:50:09;;;;;;;12.93;10.35;;;;;;;10.42;70.28;101439.69;1783907;80;20951;-77
2022/05/02 03:52:35;;;;;;;15.20;11.35;;;;;;;10.42;70.67;101441.00;1783497;80;20900;-81
2022/05/02 03:55:03;;;;;;;14.75;10.90;;;;;;;10.44;70.88;101434.77;1783621;80;20877;-79
2022/05/02 03:57:30;;;;;;;14.35;10.00;;;;;;;10.49;70.95;101435.86;1783569;80;21180;-80
2022/05/02 03:59:56;;;;;;;12.63;10.18;;;;;;;10.54;70.95;101439.14;1754312;80;20889;-80
2022/05/02 04:02:23;;;;;;;11.85;9.45;;;;;;;10.58;71.02;101434.98;1784192;80;20931;-80
2022/05/02 04:04:50;;;;;;;16.45;10.30;;;;;;;10.61;71.18;101439.23;1783778;80;21374;-80
2022/05/02 04:07:17;;;;;;;17.52;11.33;;;;;;;10.64;71.49;101440.39;1783725;80;21326;-80
2022/05/02 04:09:43;;;;;;;19.95;12.28;;;;;;;10.70;71.58;101437.48;1783730;80;21240;-80
2022/05/02 04:12:11;;;;;;;16.40;11.03;;;;;;;10.76;71.42;101439.82;1783618;80;21311;-80
2022/05/02 04:14:39;;;;;;;13.53;11.20;;;;;;;10.85;71.21;101442.91;1783781;80;21519;-80
2022/05/02 04:17:05;;;;;;;13.25;9.98;;;;;;;10.93;70.42;101441.62;1783741;80;20892;-81
2022/05/02 04:19:32;;;;;;;13.95;10.25;;;;;;;10.97;69.62;101444.95;1785595;80;20919;-79
2022/05/02 04:21:58;;;;;;;13.40;10.03;;;;;;;11.01;69.39;101449.14;1785944;80;21121;-81
2022/05/02 04:24:25;;;;;;;14.25;11.12;;;;;;;11.07;69.24;101450.59;1784394;80;20912;-80
2022/05/02 04:26:52;;;;;;;17.02;11.75;;;;;;;11.10;68.70;101447.84;1783902;80;20865;-80
2022/05/02 04:29:18;;;;;;;16.25;10.68;;;;;;;11.14;68.29;101454.18;1784035;80;21390;-81
2022/05/02 04:31:45;;;;;;;15.60;10.95;;;;;;;11.18;68.18;101454.42;1783867;80;20906;-80
2022/05/02 04:34:11;;;;;;;18.07;12.15;;;;;;;11.22;68.09;101458.20;1783770;80;21844;-81
2022/05/02 04:36:38;;;;;;;18.42;11.93;;;;;;;11.25;68.13;101451.47;1783825;80;20967;-80
2022/05/02 04:39:05;;;;;;;22.37;11.60;;;;;;;11.24;68.60;101451.94;1783544;80;21378;-80
2022/05/02 04:41:32;;;;;;;26.25;15.75;;;;;;;11.26;68.79;101454.50;1783626;80;20900;-80
2022/05/02 04:43:59;;;;;;;44.48;27.25;;;;;;;11.28;68.94;101452.65;1784100;80;20979;-80
2022/05/02 04:46:26;;;;;;;60.25;36.68;;;;;;;11.31;68.99;101452.48;1783645;80;21772;-80
2022/05/02 04:48:53;;;;;;;47.13;25.23;;;;;;;11.36;69.20;101454.41;1783415;80;21426;-80
2022/05/02 04:51:20;;;;;;;37.28;22.90;;;;;;;11.43;68.83;101453.20;1783914;80;20928;-81
2022/05/02 04:53:47;;;;;;;26.77;15.93;;;;;;;11.51;68.65;101447.55;1783588;80;20868;-80
2022/05/02 04:56:13;;;;;;;25.55;17.55;;;;;;;11.59;68.46;101446.70;1783646;80;20885;-80
2022/05/02 04:58:41;;;;;;;23.45;15.58;;;;;;;11.68;68.52;101442.28;1783503;80;21449;-80
2022/05/02 05:01:09;;;;;;;18.92;13.65;;;;;;;11.79;68.30;101451.78;1784467;80;20999;-78
2022/05/02 05:03:35;;;;;;;14.78;12.68;;;;;;;11.88;68.25;101449.17;1784934;78;20892;-79
2022/05/02 05:06:02;;;;;;;19.52;13.65;;;;;;;12.02;68.10;101452.38;1786477;78;20963;-80
2022/05/02 05:08:29;;;;;;;17.07;12.18;;;;;;;12.17;67.92;101447.63;1786200;79;20987;-80
2022/05/02 05:11:30;;;;;;;16.75;12.75;;;;;;;12.38;67.55;101451.34;1785700;80;21314;-80
2022/05/02 05:18:07;;;;;;;15.32;13.72;;;;;;;13.14;66.96;101450.19;1783830;80;21002;-80
2022/05/02 05:20:57;;;;;;;23.12;14.87;;;;;;;13.59;65.79;101457.69;1775916;80;20921;-82
2022/05/02 05:23:47;;;;;;;21.05;14.30;;;;;;;13.91;64.47;101454.90;1775485;80;20865;-81
2022/05/02 05:26:16;;;;;;;17.00;14.23;;;;;;;14.13;63.54;101453.59;1775581;80;21246;-81
2022/05/02 05:29:40;;;;;;;18.10;13.20;;;;;;;14.36;61.28;101458.31;1775587;80;21401;-80
2022/05/02 05:32:44;;;;;;;24.32;13.78;;;;;;;14.36;61.28;101458.31;1710001;83;20883;-81
2022/05/02 05:35:11;;;;;;;22.65;13.20;;;;;;;14.43;59.23;101455.66;1710000;83;20977;-80
2022/05/02 05:37:53;;;;;;;18.57;13.15;;;;;;;14.42;58.33;101452.62;1709827;83;21038;-80
2022/05/02 05:40:44;;;;;;;20.05;12.98;;;;;;;14.43;58.00;101456.13;1710260;83;21252;-81
2022/05/02 05:43:25;;;;;;;21.57;13.35;;;;;;;14.46;57.83;101459.41;1710618;84;20963;-79
2022/05/02 05:46:23;;;;;;;23.00;14.90;;;;;;;14.48;57.26;101460.64;1711166;83;21002;-80
2022/05/02 05:49:31;;;;;;;23.52;14.75;;;;;;;14.51;57.73;101458.64;1710168;84;21551;-80
2022/05/02 05:52:18;;;;;;;21.82;13.93;;;;;;;14.51;57.73;101458.64;1710019;82;20958;-80
2022/05/02 05:55:06;;;;;;;23.75;14.43;;;;;;;14.79;58.65;101458.73;1697322;84;21221;-82
2022/05/02 05:57:43;;;;;;;25.70;14.68;;;;;;;15.26;58.59;101453.45;1710171;83;20926;-82
2022/05/02 06:00:12;;;;;;;19.50;14.05;;;;;;;15.92;58.13;101459.11;1707246;83;20975;-81
2022/05/02 06:03:17;;;;;;;19.12;14.20;;;;;;;16.67;56.47;101447.63;1710337;83;21023;-81
2022/05/02 06:05:47;;;;;;;19.65;14.65;;;;;;;17.44;55.40;101452.60;1731335;80;20940;-80
2022/05/02 06:08:22;;;;;;;15.53;13.53;;;;;;;18.34;52.47;101450.08;1775563;80;21139;-78
2022/05/02 06:10:50;;;;;;;17.77;12.43;;;;;;;19.08;51.33;101452.59;1775590;80;20920;-80
2022/05/02 06:13:18;;;;;;;16.02;10.48;;;;;;;19.83;47.81;101447.13;1775413;80;21016;-80
2022/05/02 06:18:37;;;;;;;17.42;10.65;;;;;;;20.68;41.71;101451.73;1775482;80;21361;-81
2022/05/02 06:21:06;;;;;;;14.78;10.40;;;;;;;20.82;40.39;101446.48;1783339;80;21274;-82
2022/05/02 06:23:43;;;;;;;13.53;9.88;;;;;;;20.93;39.86;101453.02;1783581;80;20884;-79
2022/05/02 06:26:09;;;;;;;17.52;11.22;;;;;;;21.00;39.47;101442.64;1784784;80;20993;-78
2022/05/02 06:28:46;;;;;;;15.90;10.40;;;;;;;21.08;39.68;101442.30;1784379;80;20916;-80
2022/05/02 06:31:22;;;;;;;12.07;10.13;;;;;;;21.10;40.73;101443.50;1783925;80;20892;-81
2022/05/02 06:33:50;;;;;;;17.92;10.15;;;;;;;20.94;40.70;101443.19;1783645;80;21180;-79
2022/05/02 06:36:42;;;;;;;15.20;9.03;;;;;;;20.99;40.89;101447.14;1783667;80;20931;-81
2022/05/02 06:39:39;;;;;;;15.13;9.60;;;;;;;21.41;40.46;101454.02;1709777;83;21049;-81
2022/05/02 06:42:26;;;;;;;16.00;8.63;;;;;;;22.02;38.66;101450.08;1709959;84;20915;-81
2022/05/02 06:45:27;;;;;;;14.40;7.67;;;;;;;22.51;37.37;101451.55;1709658;82;20891;-82
2022/05/02 06:48:39;;;;;;;7.22;5.78;;;;;;;22.91;37.49;101446.28;1709919;84;21297;-83
2022/05/02 06:51:09;;;;;;;8.53;5.17;;;;;;;23.30;34.62;101447.81;1710272;83;20899;-81
2022/05/02 06:53:41;;;;;;;10.82;5.85;;;;;;;23.47;32.18;101447.45;1709982;82;20907;-82
2022/05/02 06:56:37;;;;;;;7.17;4.83;;;;;;;23.52;32.05;101448.68;1706658;83;21334;-81
2022/05/02 06:59:24;;;;;;;3.98;3.55;;;;;;;23.61;30.65;101453.59;1710326;83;20848;-81
2022/05/02 07:01:54;;;;;;;8.50;4.50;;;;;;;23.75;30.54;101451.70;1710091;84;21256;-81
2022/05/02 07:04:43;;;;;;;8.45;4.37;;;;;;;23.80;29.93;101451.22;1709884;82;20987;-82
2022/05/02 07:07:27;;;;;;;6.03;4.62;;;;;;;23.88;30.55;101454.44;1709970;83;21014;-81
2022/05/02 07:10:09;;;;;;;6.58;4.22;;;;;;;24.06;29.84;101452.55;1711595;83;21421;-81
2022/05/02 07:13:03;;;;;;;7.55;3.55;;;;;;;24.38;28.99;101454.50;1719868;80;20893;-81
2022/05/02 07:15:47;;;;;;;6.40;4.30;;;;;;;24.68;28.28;101456.31;1764656;80;21288;-81
2022/05/02 07:18:52;;;;;;;3.98;3.55;;;;;;;24.76;28.91;101454.97;1782303;80;20892;-79
2022/05/02 07:21:30;;;;;;;5.25;2.98;;;;;;;24.76;27.69;101454.97;1775983;80;20968;-81
2022/05/02 07:24:23;;;;;;;5.42;3.27;;;;;;;24.64;27.65;101453.63;1775754;80;20884;-81
2022/05/02 07:27:20;;;;;;;10.30;4.03;;;;;;;24.64;27.99;101449.59;1774798;80;21556;-81
2022/05/02 07:29:47;;;;;;;9.80;4.10;;;;;;;24.82;28.79;101451.64;1775670;80;21335;-80
2022/05/02 07:32:14;;;;;;;7.20;5.55;;;;;;;24.90;28.84;101452.17;1775790;80;20880;-81
2022/05/02 07:34:40;;;;;;;9.28;6.28;;;;;;;24.97;27.44;101451.00;1775802;80;21402;-82
2022/05/02 07:37:06;;;;;;;7.42;5.37;;;;;;;25.00;28.06;101447.47;1775837;80;20960;-82
2022/05/02 07:39:33;;;;;;;6.05;5.40;;;;;;;25.14;27.92;101447.80;1775747;80;20920;-81
2022/05/02 07:42:02;;;;;;;7.20;5.80;;;;;;;25.26;27.94;101444.30;1775891;80;21228;-83
2022/05/02 07:44:33;;;;;;;9.60;6.10;;;;;;;25.48;27.39;101444.98;1775959;80;20944;-82
2022/05/02 07:47:03;;;;;;;11.12;6.08;;;;;;;25.65;27.09;101442.58;1775711;80;20980;-82
2022/05/02 07:49:30;;;;;;;12.28;6.03;;;;;;;25.66;27.52;101442.10;1775635;80;21051;-83
2022/05/02 07:51:57;;;;;;;10.08;6.37;;;;;;;25.71;27.49;101441.58;1778013;80;20837;-79
2022/05/02 07:54:26;;;;;;;7.20;5.15;;;;;;;25.67;27.62;101438.91;1776395;80;21226;-81
2022/05/02 07:57:01;;;;;;;8.30;6.03;;;;;;;25.87;27.25;101440.19;1775665;80;21461;-81
2022/05/02 07:59:37;;;;;;;6.40;5.08;;;;;;;26.02;27.25;101439.83;1775938;80;20901;-80
2022/05/02 08:02:05;;;;;;;8.08;5.62;;;;;;;26.34;25.53;101432.63;1775745;80;20940;-81
2022/05/02 08:04:36;;;;;;;6.58;5.08;;;;;;;26.55;25.94;101432.05;1775880;80;21591;-81
2022/05/02 08:07:11;;;;;;;8.55;5.62;;;;;;;26.75;25.03;101433.78;1777129;80;21093;-80
2022/05/02 08:10:25;;;;;;;6.92;3.98;;;;;;;26.98;25.14;101425.69;1776966;80;21010;-81
2022/05/02 08:13:05;;;;;;;6.92;4.60;;;;;;;27.22;24.88;101419.81;1778422;78;20884;-80
2022/05/02 08:15:40;;;;;;;6.67;5.17;;;;;;;27.43;23.20;101422.63;1778138;78;20928;-81
2022/05/02 08:18:42;;;;;;;10.28;5.33;;;;;;;27.28;23.73;101416.41;1778946;80;21122;-79
2022/05/02 08:21:26;;;;;;;8.68;4.55;;;;;;;27.29;24.98;101410.81;1784724;78;22071;-80
2022/05/02 08:27:21;;;;;;;4.87;4.37;;;;;;;27.53;22.48;101407.55;1785272;80;20896;-79
2022/05/02 08:30:25;;;;;;;9.48;5.28;;;;;;;27.40;22.81;101406.01;1785327;80;21007;-82
2022/05/02 08:33:06;;;;;;;6.67;4.90;;;;;;;27.40;22.93;101403.31;1784736;80;20975;-82
2022/05/02 08:36:05;;;;;;;5.78;3.83;;;;;;;27.41;22.64;101401.79;1786428;80;20869;-83
2022/05/02 08:38:57;;;;;;;6.40;4.92;;;;;;;27.38;23.04;101401.31;1784785;80;20940;-83
2022/05/02 08:41:41;;;;;;;4.90;4.33;;;;;;;27.42;21.99;101394.54;1784680;80;20935;-83
2022/05/02 08:44:37;;;;;;;8.48;4.40;;;;;;;27.27;22.31;101391.81;1782343;80;20896;-82
2022/05/02 08:47:46;;;;;;;5.50;4.37;;;;;;;27.28;23.27;101392.98;1784619;80;20888;-80
2022/05/02 08:50:29;;;;;;;11.05;4.17;;;;;;;27.61;23.09;101389.93;1782842;80;21782;-84
2022/05/02 08:53:40;;;;;;;8.68;4.65;;;;;;;27.94;22.78;101384.19;1784436;80;20888;-84
2022/05/02 08:56:14;;;;;;;4.78;3.92;;;;;;;28.19;21.52;101387.42;1783487;80;21390;-83
2022/05/02 08:59:32;;;;;;;6.80;4.20;;;;;;;28.43;21.37;101380.81;1784224;80;21008;-82
2022/05/02 09:02:18;;;;;;;7.08;4.58;;;;;;;28.58;21.99;101383.50;1784688;80;21038;-81
2022/05/02 09:05:19;;;;;;;7.92;4.47;;;;;;;28.68;20.55;101375.93;1784809;80;21382;-81
2022/05/02 09:08:42;;;;;;;5.00;4.22;;;;;;;28.60;20.13;101372.52;1781329;80;20979;-83
2022/05/02 09:11:31;;;;;;;5.50;4.55;;;;;;;28.34;20.76;101375.74;1784315;80;20924;-83
2022/05/02 09:14:26;;;;;;;8.68;4.65;;;;;;;28.33;21.37;101366.81;1783956;80;20956;-81
2022/05/02 09:17:39;;;;;;;9.60;4.95;;;;;;;28.26;20.66;101365.40;1784214;80;20935;-82
2022/05/02 09:20:48;;;;;;;6.20;4.30;;;;;;;27.77;21.19;101357.08;1784105;80;21207;-81
2022/05/02 09:23:52;;;;;;;7.83;4.12;;;;;;;27.51;21.63;101350.31;1783720;80;20880;-83
2022/05/02 09:26:47;;;;;;;6.05;4.25;;;;;;;27.40;22.09;101346.22;1783763;80;21002;-82
2022/05/02 09:29:54;;;;;;;9.70;4.60;;;;;;;27.15;22.63;101341.58;1752127;81;20973;-83
2022/05/02 09:35:04;;;;;;;6.33;5.20;;;;;;;25.94;22.79;101341.75;1798999;79;22491;-83
2022/05/02 09:37:39;;;;;;;6.05;4.62;;;;;;;25.52;23.11;101340.72;1758511;81;20923;-82
2022/05/02 09:40:16;;;;;;;8.75;4.75;;;;;;;25.30;23.49;101343.62;1758558;80;21237;-81
2022/05/02 09:43:05;;;;;;;7.12;4.67;;;;;;;25.11;23.46;101336.25;1757819;81;20915;-83
2022/05/02 09:51:56;;;;;;;5.70;4.47;;;;;;;25.36;24.32;101319.61;1759133;81;20853;-84
2022/05/02 09:58:17;;;;;;;5.42;4.50;;;;;;;25.64;23.17;101321.37;1758338;81;20880;-83
2022/05/02 10:01:26;;;;;;;7.08;5.30;;;;;;;25.54;23.83;101320.72;1758940;80;20979;-82
2022/05/02 10:04:12;;;;;;;6.90;4.60;;;;;;;25.25;23.02;101308.41;1758681;81;21402;-81
2022/05/02 10:06:48;;;;;;;5.78;4.15;;;;;;;25.23;23.29;101301.37;1758729;81;20892;-82
2022/05/02 10:09:43;;;;;;;6.45;4.70;;;;;;;25.56;24.17;101303.09;1758826;80;21183;-84
2022/05/02 10:12:51;;;;;;;5.80;4.40;;;;;;;25.99;23.56;101296.39;1720510;83;21365;-82
2022/05/02 10:15:52;;;;;;;7.47;4.97;;;;;;;26.44;23.53;101296.59;1725390;83;20887;-83
2022/05/02 10:18:41;;;;;;;6.87;4.70;;;;;;;26.98;22.77;101291.60;1725102;83;21417;-82
2022/05/02 10:21:13;;;;;;;9.68;4.47;;;;;;;27.25;21.01;101292.34;1725444;81;20931;-82
2022/05/02 10:23:52;;;;;;;4.33;3.93;;;;;;;27.48;21.11;101295.47;1711132;81;21900;-84
2022/05/02 10:26:28;;;;;;;5.90;3.60;;;;;;;27.82;21.68;101289.45;1725080;83;20872;-81
2022/05/02 10:29:20;;;;;;;7.78;4.00;;;;;;;27.96;21.71;101287.77;1725201;83;20931;-81
2022/05/02 10:31:50;;;;;;;5.55;4.42;;;;;;;27.86;21.77;101288.61;1725150;83;20927;-81
2022/05/02 10:34:20;;;;;;;6.22;4.15;;;;;;;27.49;21.66;101282.31;1718165;82;20888;-82
2022/05/02 10:36:48;;;;;;;7.83;4.30;;;;;;;27.09;21.40;101279.86;1734613;81;21230;-80
2022/05/02 10:39:40;;;;;;;7.55;4.30;;;;;;;26.67;22.09;101279.93;1712844;82;20931;-82
2022/05/02 10:42:10;;;;;;;5.15;4.08;;;;;;;26.18;22.09;101281.63;1717622;83;20888;-83
2022/05/02 10:44:56;;;;;;;6.55;4.33;;;;;;;25.58;22.70;101284.45;1719031;82;20928;-81
2022/05/02 10:47:26;;;;;;;5.85;4.65;;;;;;;25.15;22.85;101280.39;1716947;83;20932;-82
2022/05/02 10:50:23;;;;;;;14.30;5.70;;;;;;;24.70;23.38;101283.11;1716856;83;20944;-84
2022/05/02 10:53:16;;;;;;;5.45;4.90;;;;;;;24.22;23.91;101276.72;1716470;83;21449;-81
2022/05/02 10:56:36;;;;;;;9.40;5.33;;;;;;;23.59;23.77;101273.50;1717581;83;20908;-82
2022/05/02 10:59:04;;;;;;;7.00;5.35;;;;;;;22.94;24.92;101273.46;1716851;82;21519;-82
2022/05/02 11:02:06;;;;;;;7.40;5.05;;;;;;;22.47;25.15;101274.25;1717019;82;20888;-82
2022/05/02 11:05:05;;;;;;;14.50;5.50;;;;;;;22.19;25.50;101280.13;1716977;83;20983;-83
2022/05/02 11:07:59;;;;;;;13.22;5.83;;;;;;;21.65;26.50;101278.70;1716955;83;20967;-81
2022/05/02 11:10:49;;;;;;;8.45;4.80;;;;;;;21.19;26.76;101271.05;1717063;83;20952;-83
2022/05/02 11:13:46;;;;;;;9.85;4.83;;;;;;;20.88;27.77;101277.46;1688522;83;20955;-81
2022/05/02 11:16:35;;;;;;;7.62;4.25;;;;;;;20.74;28.33;101275.23;1716209;82;20966;-82
2022/05/02 11:22:38;;;;;;;9.03;5.53;;;;;;;20.68;29.07;101267.82;1716915;83;20951;-81
2022/05/02 11:25:20;;;;;;;12.35;6.78;;;;;;;20.53;28.49;101263.87;1735779;81;20972;-82
2022/05/02 11:28:30;;;;;;;9.08;5.03;;;;;;;20.46;28.72;101257.77;1754417;80;20920;-80
2022/05/02 11:31:19;;;;;;;7.33;4.80;;;;;;;20.38;29.26;101264.78;1753113;82;21392;-81
2022/05/02 11:34:33;;;;;;;5.58;4.33;;;;;;;20.35;29.56;101260.58;1751064;81;21826;-82
2022/05/02 11:37:00;;;;;;;7.53;5.00;;;;;;;20.30;29.56;101265.48;1745123;81;20877;-81
2022/05/02 11:39:43;;;;;;;6.60;4.35;;;;;;;20.25;30.07;101258.39;1745216;82;20955;-81
2022/05/02 11:42:18;;;;;;;8.88;4.62;;;;;;;20.26;30.51;101256.92;1744825;81;20903;-81
2022/05/02 11:45:01;;;;;;;9.28;5.20;;;;;;;20.24;29.91;101253.55;1744573;81;20932;-84
2022/05/02 11:48:02;;;;;;;10.80;4.97;;;;;;;20.23;29.51;101248.36;1744933;81;21370;-83
2022/05/02 11:50:37;;;;;;;7.15;4.65;;;;;;;20.26;30.08;101246.77;1744903;81;20924;-83
2022/05/02 11:53:04;;;;;;;8.03;4.50;;;;;;;20.35;29.80;101247.25;1744842;81;21070;-82
2022/05/02 11:55:34;;;;;;;7.95;4.50;;;;;;;20.37;30.00;101243.13;1665316;84;20890;-82
2022/05/02 11:58:20;;;;;;;9.45;4.67;;;;;;;20.32;29.53;101238.22;1747524;79;20952;-81
2022/05/02 12:01:06;;;;;;;8.18;4.60;;;;;;;20.27;29.62;101247.94;1667649;82;20995;-81
2022/05/02 12:03:53;;;;;;;5.78;4.50;;;;;;;20.25;29.13;101243.27;1709767;82;20924;-83
2022/05/02 12:06:31;;;;;;;5.95;4.28;;;;;;;20.26;30.84;101240.11;1711202;82;20928;-80
2022/05/02 12:09:03;;;;;;;4.92;3.90;;;;;;;20.22;30.28;101240.03;1736370;82;20940;-79
2022/05/02 12:11:30;;;;;;;6.55;4.53;;;;;;;20.20;30.22;101240.16;1689888;84;20908;-81
2022/05/02 12:13:56;;;;;;;7.15;4.62;;;;;;;20.20;30.04;101236.66;1707007;84;21895;-81
2022/05/02 12:16:22;;;;;;;6.12;4.67;;;;;;;20.17;29.19;101238.28;1701770;84;20955;-82
2022/05/02 12:18:55;;;;;;;8.53;5.12;;;;;;;20.15;30.01;101245.57;1696554;84;20956;-82
2022/05/02 12:21:31;;;;;;;5.55;4.28;;;;;;;20.10;29.11;101244.66;1696423;84;20916;-83
2022/05/02 12:23:59;;;;;;;5.25;4.47;;;;;;;19.97;29.56;101237.42;1696616;84;20940;-82
2022/05/02 12:26:28;;;;;;;5.12;4.33;;;;;;;19.93;29.22;101241.34;1697250;84;21170;-80
2022/05/02 12:29:03;;;;;;;7.53;3.87;;;;;;;19.85;29.36;101232.69;1696816;83;21545;-80